Haley, North Dakota
Current Conditions -  °F | °C
As of 1:53 PM on Tuesday 27 Jan 2015 (Local Time) from KHEI Reporting Station
Clear Clear  
Wind Chill: 63°   Ceiling: Unl
Heat Index: 63°   Visibility: 10mi
Dew Point: 35°   Wind: 12mph
Humidity: 35%   Direction: 270°W
Pressure: 29.85"   Gusts: NA
Location:  46.1126°N, 103.12°W
Report Text: KHEI 272053Z AUTO 27010KT 10SM CLR 17/02 A2985 RMK AO2 SLP115 T01720017 57014
Loading
Personal Weather Stations






























Interactive Weather Map New forecast layout! Learn more

10-Day Weather Forecast

Advertisements
Track Severe Weather on mobile